createdAt,value
2019-05-22T00:01:25.270Z,14.93
2019-05-22T00:04:06.793Z,14.27
2019-05-22T00:06:41.571Z,20.33
2019-05-22T00:09:19.577Z,18.93
2019-05-22T00:11:51.990Z,17.47
2019-05-22T00:14:22.073Z,17.07
2019-05-22T00:16:51.537Z,18.40
2019-05-22T00:19:22.628Z,19.03
2019-05-22T00:21:57.242Z,17.00
2019-05-22T00:24:27.202Z,19.30
2019-05-22T00:26:58.270Z,17.70
2019-05-22T00:29:28.243Z,21.23
2019-05-22T00:31:58.068Z,20.63
2019-05-22T00:34:27.914Z,22.73
2019-05-22T00:36:57.562Z,19.97
2019-05-22T00:39:28.664Z,19.07
2019-05-22T00:41:58.342Z,23.93
2019-05-22T00:44:29.181Z,21.30
2019-05-22T00:47:01.129Z,23.60
2019-05-22T00:49:32.806Z,26.37
2019-05-22T00:52:06.490Z,22.70
2019-05-22T00:54:55.281Z,21.33
2019-05-22T00:57:45.549Z,22.27
2019-05-22T01:00:27.923Z,21.87
2019-05-22T01:02:57.544Z,18.67
2019-05-22T01:05:30.070Z,22.07
2019-05-22T01:08:00.957Z,20.47
2019-05-22T01:10:31.227Z,23.13
2019-05-22T01:13:00.867Z,22.40
2019-05-22T01:15:32.089Z,24.07
2019-05-22T01:18:07.342Z,23.07
2019-05-22T01:20:38.278Z,26.27
2019-05-22T01:23:09.327Z,26.70
2019-05-22T01:25:40.392Z,26.60
2019-05-22T01:28:13.065Z,26.20
2019-05-22T01:31:07.049Z,27.03
2019-05-22T01:33:44.794Z,23.80
2019-05-22T01:36:26.135Z,24.57
2019-05-22T01:39:00.897Z,30.83
2019-05-22T01:41:33.041Z,28.57
2019-05-22T01:44:06.134Z,26.40
2019-05-22T01:46:37.198Z,26.23
2019-05-22T01:49:10.397Z,25.60
2019-05-22T01:51:40.040Z,26.77
2019-05-22T01:54:11.276Z,27.60
2019-05-22T01:56:41.908Z,22.40
2019-05-22T01:59:12.469Z,22.30
2019-05-22T02:01:41.994Z,24.23
2019-05-22T02:04:14.986Z,21.53
2019-05-22T02:06:44.577Z,26.37
2019-05-22T02:09:33.823Z,21.33
2019-05-22T02:12:18.152Z,24.87
2019-05-22T02:14:50.393Z,24.67
2019-05-22T02:17:23.861Z,24.87
2019-05-22T02:19:53.373Z,21.60
2019-05-22T02:22:23.538Z,26.07
2019-05-22T02:24:53.313Z,25.93
2019-05-22T02:27:24.086Z,27.97
2019-05-22T02:29:55.309Z,23.27
2019-05-22T02:32:25.694Z,27.23
2019-05-22T02:34:55.517Z,28.17
2019-05-22T02:37:25.198Z,24.20
2019-05-22T02:39:55.661Z,27.00
2019-05-22T02:42:30.989Z,26.77
2019-05-22T02:45:01.548Z,26.37
2019-05-22T02:47:32.091Z,28.80
2019-05-22T02:50:02.284Z,29.63
2019-05-22T02:52:31.600Z,29.30
2019-05-22T02:55:02.151Z,26.80
2019-05-22T02:57:31.668Z,23.90
2019-05-22T03:00:01.767Z,23.90
2019-05-22T03:02:33.843Z,20.27
2019-05-22T03:05:07.216Z,21.33
2019-05-22T03:07:38.083Z,16.37
2019-05-22T03:10:10.678Z,23.70
2019-05-22T03:12:40.954Z,23.27
2019-05-22T03:15:12.966Z,24.83
2019-05-22T03:17:45.549Z,26.40
2019-05-22T03:20:19.398Z,25.40
2019-05-22T03:23:12.251Z,23.60
2019-05-22T03:25:43.530Z,25.50
2019-05-22T03:28:13.909Z,31.97
2019-05-22T03:30:43.880Z,35.20
2019-05-22T03:33:13.344Z,29.80
2019-05-22T03:35:45.900Z,24.40
2019-05-22T03:38:17.639Z,25.37
2019-05-22T03:40:47.989Z,27.93
2019-05-22T03:43:20.959Z,24.27
2019-05-22T03:45:51.943Z,27.57
2019-05-22T03:48:23.638Z,26.17
2019-05-22T03:50:56.209Z,22.63
2019-05-22T03:53:25.942Z,22.70
2019-05-22T03:55:57.283Z,21.93
2019-05-22T03:58:26.839Z,19.47
2019-05-22T04:00:58.905Z,20.83
2019-05-22T04:03:29.056Z,18.93
2019-05-22T04:06:00.194Z,20.20
2019-05-22T04:08:31.054Z,24.60
2019-05-22T04:11:03.450Z,26.57
2019-05-22T04:13:34.358Z,25.23
2019-05-22T04:16:06.671Z,26.03
2019-05-22T04:18:37.504Z,23.73
2019-05-22T04:21:06.766Z,26.30
2019-05-22T04:23:37.734Z,26.10
2019-05-22T04:26:11.759Z,28.03
2019-05-22T04:28:49.110Z,26.50
2019-05-22T04:31:19.566Z,29.47
2019-05-22T04:33:49.222Z,28.53
2019-05-22T04:36:19.968Z,25.83
2019-05-22T04:38:49.839Z,29.63
2019-05-22T04:41:19.603Z,28.47
2019-05-22T04:43:49.563Z,23.60
2019-05-22T04:46:19.129Z,22.37
2019-05-22T04:48:48.740Z,19.90
2019-05-22T04:51:27.107Z,17.50
2019-05-22T04:53:57.053Z,18.60
2019-05-22T04:56:27.665Z,16.43
2019-05-22T04:58:58.185Z,13.03
2019-05-22T05:01:27.554Z,17.73
2019-05-22T05:03:57.439Z,14.47
2019-05-22T05:06:29.031Z,15.60
2019-05-22T05:08:58.590Z,15.10
2019-05-22T05:11:27.900Z,17.90
2019-05-22T05:13:57.461Z,10.60
2019-05-22T05:16:26.726Z,11.93
2019-05-22T05:18:56.491Z,11.50
2019-05-22T05:21:25.972Z,10.57
2019-05-22T05:23:56.029Z,10.80
2019-05-22T05:26:26.797Z,10.23
2019-05-22T05:28:59.754Z,8.43
2019-05-22T05:31:29.989Z,8.60
2019-05-22T05:34:13.741Z,11.47
2019-05-22T05:36:44.934Z,12.10
2019-05-22T05:39:58.163Z,12.10
2019-05-22T05:42:27.635Z,13.33
2019-05-22T05:44:56.893Z,11.57
2019-05-22T05:47:26.666Z,13.20
2019-05-22T05:49:57.802Z,14.37
2019-05-22T05:52:29.242Z,12.27
2019-05-22T05:55:00.134Z,11.90
2019-05-22T05:58:15.327Z,8.87
2019-05-22T06:00:51.985Z,7.50
2019-05-22T06:03:33.703Z,6.13
2019-05-22T06:06:51.849Z,6.97
2019-05-22T06:09:21.367Z,8.77
2019-05-22T06:11:55.924Z,8.67
2019-05-22T06:14:27.290Z,10.30
2019-05-22T06:17:43.987Z,9.30
2019-05-22T06:20:17.022Z,9.00
2019-05-22T06:23:20.732Z,7.33
2019-05-22T06:25:51.455Z,5.10
2019-05-22T06:28:20.721Z,5.40
2019-05-22T06:30:50.765Z,5.17
2019-05-22T06:33:31.113Z,8.60
2019-05-22T06:36:02.582Z,4.67
2019-05-22T06:39:11.838Z,6.93
2019-05-22T06:41:42.820Z,3.87
2019-05-22T06:44:43.312Z,5.30
2019-05-22T06:47:17.702Z,7.10
2019-05-22T06:49:49.080Z,4.93
2019-05-22T06:52:18.503Z,6.27
2019-05-22T06:54:48.718Z,4.80
2019-05-22T06:57:37.083Z,4.40
2019-05-22T07:00:24.857Z,5.53
2019-05-22T07:02:54.166Z,5.30
2019-05-22T07:05:24.516Z,4.93
2019-05-22T07:07:54.005Z,4.57
2019-05-22T07:10:23.843Z,5.17
2019-05-22T07:12:53.337Z,5.70
2019-05-22T07:15:30.881Z,6.23
2019-05-22T07:18:03.260Z,4.30
2019-05-22T07:20:35.701Z,6.07
2019-05-22T07:23:08.650Z,4.10
2019-05-22T07:25:40.162Z,5.93
2019-05-22T07:28:10.461Z,4.33
2019-05-22T07:30:40.541Z,6.37
2019-05-22T07:33:10.521Z,4.70
2019-05-22T07:36:04.836Z,6.63
2019-05-22T07:38:11.865Z,4.20
2019-05-22T07:40:41.466Z,5.20
2019-05-22T07:43:10.930Z,5.60
2019-05-22T07:45:40.909Z,7.07
2019-05-22T07:48:11.098Z,4.53
2019-05-22T07:50:48.674Z,3.80
2019-05-22T07:53:18.668Z,4.00
2019-05-22T07:55:51.014Z,4.93
2019-05-22T07:58:21.017Z,4.80
2019-05-22T08:00:56.579Z,4.93
2019-05-22T08:03:27.537Z,4.47
2019-05-22T08:05:57.881Z,4.83
2019-05-22T08:08:29.705Z,4.20
2019-05-22T08:10:59.819Z,3.73
2019-05-22T08:13:30.391Z,5.07
2019-05-22T08:15:59.866Z,5.13
2019-05-22T08:18:32.589Z,3.00
2019-05-22T08:21:02.196Z,3.47
2019-05-22T08:23:31.986Z,3.70
2019-05-22T08:26:01.458Z,3.30
2019-05-22T08:28:33.214Z,3.17
2019-05-22T08:31:04.138Z,3.00
2019-05-22T08:33:37.401Z,2.52
2019-05-22T08:36:07.036Z,2.62
2019-05-22T08:38:37.210Z,2.22
2019-05-22T08:41:09.782Z,3.15
2019-05-22T08:44:11.291Z,3.35
2019-05-22T08:46:12.932Z,2.50
2019-05-22T08:48:48.203Z,2.90
2019-05-22T08:51:14.990Z,2.30
2019-05-22T08:53:47.926Z,4.50
2019-05-22T08:56:16.443Z,5.75
2019-05-22T08:58:47.558Z,5.60
2019-05-22T09:01:17.033Z,3.70
2019-05-22T09:03:46.556Z,3.10
2019-05-22T09:06:16.258Z,3.47
2019-05-22T09:08:46.086Z,6.03
2019-05-22T09:11:15.756Z,4.03
2019-05-22T09:13:45.076Z,3.10
2019-05-22T09:16:16.716Z,4.13
2019-05-22T09:18:46.175Z,3.77
2019-05-22T09:21:16.584Z,4.43
2019-05-22T09:23:47.291Z,4.93
2019-05-22T09:26:17.218Z,18.33
2019-05-22T09:28:46.593Z,2.63
2019-05-22T09:31:16.246Z,4.37
2019-05-22T09:33:45.614Z,5.67
2019-05-22T09:36:14.897Z,2.40
2019-05-22T09:38:44.619Z,5.93
2019-05-22T09:41:13.918Z,5.33
2019-05-22T09:43:43.418Z,2.40
2019-05-22T09:46:13.759Z,4.17
2019-05-22T09:48:43.738Z,2.70
2019-05-22T09:51:13.069Z,2.53
2019-05-22T09:53:42.619Z,3.10
2019-05-22T09:56:12.145Z,2.80
2019-05-22T09:58:41.631Z,2.53
2019-05-22T10:01:12.090Z,4.43
2019-05-22T10:03:41.713Z,3.03
2019-05-22T10:06:11.566Z,2.73
2019-05-22T10:08:41.173Z,4.43
2019-05-22T10:11:10.515Z,6.40
2019-05-22T10:13:40.394Z,3.07
2019-05-22T10:16:09.655Z,4.00
2019-05-22T10:18:38.985Z,2.10
2019-05-22T10:21:09.005Z,4.50
2019-05-22T10:23:39.149Z,3.40
2019-05-22T10:26:09.365Z,5.57
2019-05-22T10:28:39.058Z,3.80
2019-05-22T10:31:09.487Z,5.07
2019-05-22T10:33:39.944Z,3.17
2019-05-22T10:36:09.531Z,4.70
2019-05-22T10:38:38.873Z,7.13
2019-05-22T10:41:08.327Z,5.33
2019-05-22T10:43:37.767Z,3.37
2019-05-22T10:46:08.213Z,3.70
2019-05-22T10:48:40.088Z,4.67
2019-05-22T10:51:09.116Z,6.87
2019-05-22T10:53:39.724Z,3.57
2019-05-22T10:56:10.257Z,3.70
2019-05-22T10:58:39.697Z,3.00
2019-05-22T11:01:09.988Z,3.07
2019-05-22T11:03:39.707Z,3.53
2019-05-22T11:06:09.372Z,2.47
2019-05-22T11:08:40.347Z,3.57
2019-05-22T11:11:10.383Z,3.43
2019-05-22T11:13:40.542Z,3.87
2019-05-22T11:16:10.320Z,5.80
2019-05-22T11:18:40.557Z,5.03
2019-05-22T11:21:10.529Z,4.43
2019-05-22T11:23:51.338Z,3.83
2019-05-22T11:26:11.752Z,5.03
2019-05-22T11:28:41.283Z,3.70
2019-05-22T11:31:10.849Z,2.83
2019-05-22T11:33:41.381Z,4.07
2019-05-22T11:36:11.622Z,5.23
2019-05-22T11:38:40.997Z,5.67
2019-05-22T11:41:11.325Z,7.93
2019-05-22T11:43:43.840Z,6.93
2019-05-22T11:46:13.549Z,11.03
2019-05-22T11:48:43.238Z,5.40
2019-05-22T11:51:12.842Z,7.27
2019-05-22T11:53:42.215Z,3.73
2019-05-22T11:56:11.658Z,5.70
2019-05-22T11:58:41.057Z,5.70
2019-05-22T12:01:10.579Z,5.17
2019-05-22T12:03:40.994Z,6.53
2019-05-22T12:06:10.525Z,8.63
2019-05-22T12:08:40.220Z,6.27
2019-05-22T12:11:11.162Z,5.97
2019-05-22T12:13:40.533Z,7.00
2019-05-22T12:16:09.999Z,4.83
2019-05-22T12:18:39.647Z,6.13
2019-05-22T12:21:08.941Z,4.87
2019-05-22T12:23:38.470Z,7.20
2019-05-22T12:26:09.178Z,5.40
2019-05-22T12:28:39.056Z,4.57
2019-05-22T12:31:09.455Z,3.60
2019-05-22T12:33:39.447Z,4.97
2019-05-22T12:36:12.026Z,6.03
2019-05-22T12:38:41.890Z,5.57
2019-05-22T12:41:13.008Z,3.57
2019-05-22T12:43:45.044Z,4.23
2019-05-22T12:46:15.191Z,2.57
2019-05-22T12:48:45.216Z,3.83
2019-05-22T12:51:15.662Z,2.63
2019-05-22T12:53:45.633Z,5.07
2019-05-22T12:56:15.438Z,4.27
2019-05-22T12:58:46.323Z,3.00
2019-05-22T13:01:17.798Z,8.00
2019-05-22T13:03:48.452Z,4.00
2019-05-22T13:06:18.124Z,6.73
2019-05-22T13:08:47.475Z,4.80
2019-05-22T13:11:17.172Z,3.57
2019-05-22T13:13:46.954Z,7.17
2019-05-22T13:16:16.897Z,4.53
2019-05-22T13:18:47.705Z,5.20
2019-05-22T13:21:20.622Z,4.77
2019-05-22T13:23:51.589Z,5.70
2019-05-22T13:26:23.245Z,6.00
2019-05-22T13:28:54.705Z,6.33
2019-05-22T13:31:25.114Z,3.47
2019-05-22T13:33:54.972Z,3.40
2019-05-22T13:36:25.271Z,6.17
2019-05-22T13:38:54.941Z,5.17
2019-05-22T13:41:24.312Z,4.73
2019-05-22T13:43:54.031Z,2.53
2019-05-22T13:46:23.984Z,2.23
2019-05-22T13:48:53.323Z,4.77
2019-05-22T13:51:22.922Z,4.57
2019-05-22T13:53:53.634Z,5.63
2019-05-22T13:56:25.628Z,3.00
2019-05-22T13:58:56.207Z,3.83
2019-05-22T14:01:26.200Z,5.20
2019-05-22T14:03:56.443Z,4.30
2019-05-22T14:06:25.950Z,5.10
2019-05-22T14:08:55.587Z,4.20
2019-05-22T14:11:25.006Z,3.10
2019-05-22T14:13:54.871Z,3.40
2019-05-22T14:16:24.473Z,9.57
2019-05-22T14:18:53.804Z,4.20
2019-05-22T14:21:23.206Z,5.17
2019-05-22T14:23:52.510Z,2.50
2019-05-22T14:26:21.903Z,3.30
2019-05-22T14:28:51.693Z,3.60
2019-05-22T14:31:20.969Z,5.27
2019-05-22T14:33:50.759Z,3.47
2019-05-22T14:36:20.676Z,5.17
2019-05-22T14:38:50.159Z,4.90
2019-05-22T14:41:19.698Z,5.23
2019-05-22T14:43:48.998Z,5.57
2019-05-22T14:46:18.362Z,5.23
2019-05-22T14:48:47.827Z,3.90
2019-05-22T14:51:20.238Z,4.20
2019-05-22T14:53:52.164Z,5.97
2019-05-22T14:56:22.223Z,4.27
2019-05-22T14:58:51.699Z,5.03
2019-05-22T15:01:22.338Z,7.00
2019-05-22T15:03:51.989Z,7.97
2019-05-22T15:06:21.279Z,9.97
2019-05-22T15:08:50.507Z,7.67
2019-05-22T15:11:20.729Z,10.30
2019-05-22T15:13:50.543Z,14.37
2019-05-22T15:16:20.531Z,16.43
2019-05-22T15:18:49.870Z,13.87
2019-05-22T15:21:19.649Z,17.50
2019-05-22T15:23:51.063Z,17.00
2019-05-22T15:26:20.962Z,11.43
2019-05-22T15:28:50.614Z,11.77
2019-05-22T15:31:20.370Z,8.47
2019-05-22T15:33:50.437Z,7.20
2019-05-22T15:36:22.783Z,7.63
2019-05-22T15:38:53.377Z,6.87
2019-05-22T15:41:23.786Z,7.27
2019-05-22T15:43:54.562Z,7.50
2019-05-22T15:46:26.105Z,6.40
2019-05-22T15:48:56.152Z,8.40
2019-05-22T15:51:30.043Z,7.63
2019-05-22T15:54:02.245Z,9.23
2019-05-22T15:56:33.860Z,12.97
2019-05-22T15:59:05.937Z,12.67
2019-05-22T16:01:36.812Z,13.53
2019-05-22T16:04:09.056Z,9.67
2019-05-22T16:06:39.385Z,10.73
2019-05-22T16:09:13.206Z,10.47
2019-05-22T16:11:44.090Z,12.67
2019-05-22T16:14:14.839Z,11.67
2019-05-22T16:16:47.015Z,11.90
2019-05-22T16:19:17.065Z,12.30
2019-05-22T16:21:48.522Z,13.47
2019-05-22T16:24:19.270Z,11.20
2019-05-22T16:26:49.718Z,14.57
2019-05-22T16:29:21.858Z,10.83
2019-05-22T16:31:52.391Z,13.47
2019-05-22T16:34:22.904Z,9.67
2019-05-22T16:36:54.258Z,11.63
2019-05-22T16:39:24.867Z,9.33
2019-05-22T16:41:54.917Z,8.27
2019-05-22T16:44:24.858Z,6.93
2019-05-22T16:46:54.641Z,10.00
2019-05-22T16:49:24.421Z,6.60
2019-05-22T16:51:55.195Z,7.30
2019-05-22T16:54:25.380Z,6.87
2019-05-22T16:56:55.596Z,6.17
2019-05-22T16:59:24.847Z,6.17
2019-05-22T17:01:59.612Z,4.53
2019-05-22T17:04:26.067Z,4.40
2019-05-22T17:06:56.038Z,3.03
2019-05-22T17:09:26.346Z,3.80
2019-05-22T17:11:56.733Z,4.37
2019-05-22T17:14:27.805Z,5.00
2019-05-22T17:16:57.510Z,3.10
2019-05-22T17:19:28.057Z,3.03
2019-05-22T17:21:58.014Z,3.40
2019-05-22T17:24:27.881Z,3.63
2019-05-22T17:26:57.320Z,5.03
2019-05-22T17:29:27.204Z,5.00
2019-05-22T17:31:56.693Z,4.90
2019-05-22T17:34:32.615Z,4.67
2019-05-22T17:37:06.182Z,5.73
2019-05-22T17:39:36.653Z,5.50
2019-05-22T17:42:08.937Z,6.73
2019-05-22T17:44:41.422Z,8.30
2019-05-22T17:47:11.823Z,6.93
2019-05-22T17:49:41.625Z,6.27
2019-05-22T17:52:12.757Z,8.80
2019-05-22T17:54:42.897Z,7.33
2019-05-22T17:57:13.779Z,9.03
2019-05-22T17:59:43.382Z,6.37
2019-05-22T18:02:14.290Z,6.17
2019-05-22T18:04:43.849Z,6.60
2019-05-22T18:07:13.513Z,6.30
2019-05-22T18:09:43.198Z,6.53
2019-05-22T18:12:13.269Z,11.60
2019-05-22T18:14:42.582Z,8.03
2019-05-22T18:17:12.174Z,8.60
2019-05-22T18:19:41.552Z,8.10
2019-05-22T18:22:12.482Z,8.47
2019-05-22T18:24:42.220Z,9.57
2019-05-22T18:27:11.578Z,8.17
2019-05-22T18:29:40.895Z,9.03
2019-05-22T18:32:12.131Z,10.53
2019-05-22T18:34:41.622Z,9.60
2019-05-22T18:37:10.941Z,7.53
2019-05-22T18:39:40.566Z,10.67
2019-05-22T18:42:10.400Z,7.97
2019-05-22T18:44:39.770Z,6.50
2019-05-22T18:47:10.103Z,7.77
2019-05-22T18:49:39.419Z,7.60
2019-05-22T18:52:09.494Z,7.13
2019-05-22T18:54:38.790Z,7.87
2019-05-22T18:57:08.072Z,10.07
2019-05-22T18:59:37.462Z,10.07
2019-05-22T19:02:07.037Z,6.67
2019-05-22T19:04:36.856Z,8.37
2019-05-22T19:07:06.349Z,9.00
2019-05-22T19:09:35.609Z,8.07
2019-05-22T19:12:05.506Z,9.10
2019-05-22T19:14:34.962Z,7.97
2019-05-22T19:17:04.878Z,10.57
2019-05-22T19:19:34.485Z,8.57
2019-05-22T19:22:03.753Z,8.10
2019-05-22T19:24:33.149Z,7.07
2019-05-22T19:27:02.458Z,7.03
2019-05-22T19:29:31.872Z,6.87
2019-05-22T19:32:01.224Z,8.13
2019-05-22T19:34:30.835Z,7.97
2019-05-22T19:37:00.326Z,8.07
2019-05-22T19:39:30.218Z,7.27
2019-05-22T19:42:04.095Z,6.53
2019-05-22T19:44:30.907Z,7.50
2019-05-22T19:47:00.749Z,8.80
2019-05-22T19:49:31.147Z,9.47
2019-05-22T19:52:01.048Z,7.23
2019-05-22T19:54:30.368Z,7.67
2019-05-22T19:56:59.861Z,7.33
2019-05-22T19:59:30.318Z,6.97
2019-05-22T20:02:00.167Z,6.77
2019-05-22T20:04:29.593Z,6.23
2019-05-22T20:06:59.094Z,6.60
2019-05-22T20:09:28.653Z,9.87
2019-05-22T20:11:57.951Z,5.83
2019-05-22T20:14:30.495Z,6.80
2019-05-22T20:16:58.727Z,6.93
2019-05-22T20:19:28.318Z,6.23
2019-05-22T20:22:00.298Z,6.53
2019-05-22T20:24:29.240Z,6.40
2019-05-22T20:26:58.569Z,6.23
2019-05-22T20:29:27.927Z,5.97
2019-05-22T20:31:57.385Z,9.10
2019-05-22T20:34:26.677Z,5.50
2019-05-22T20:36:57.148Z,4.50
2019-05-22T20:39:29.742Z,5.20
2019-05-22T20:41:59.687Z,5.37
2019-05-22T20:44:29.534Z,4.80
2019-05-22T20:46:58.983Z,5.43
2019-05-22T20:49:28.951Z,6.97
2019-05-22T20:51:58.135Z,6.17
2019-05-22T20:54:28.430Z,4.73
2019-05-22T20:56:59.269Z,6.40
2019-05-22T20:59:30.026Z,4.57
2019-05-22T21:01:59.585Z,4.97
2019-05-22T21:04:29.427Z,4.93
2019-05-22T21:07:02.208Z,5.37
2019-05-22T21:09:32.454Z,4.50
2019-05-22T21:12:03.239Z,4.43
2019-05-22T21:14:32.759Z,4.63
2019-05-22T21:17:02.345Z,3.37
2019-05-22T21:19:32.301Z,4.60
2019-05-22T21:22:02.766Z,3.93
2019-05-22T21:24:31.993Z,3.53
2019-05-22T21:27:01.550Z,3.93
2019-05-22T21:29:32.046Z,3.97
2019-05-22T21:32:01.517Z,4.37
2019-05-22T21:34:31.445Z,3.20
2019-05-22T21:37:01.680Z,3.73
2019-05-22T21:39:31.510Z,3.70
2019-05-22T21:42:00.904Z,4.50
2019-05-22T21:44:30.451Z,4.80
2019-05-22T21:47:00.255Z,3.40
2019-05-22T21:49:30.370Z,2.83
2019-05-22T21:52:00.422Z,2.97
2019-05-22T21:54:30.082Z,8.33
2019-05-22T21:57:00.845Z,4.67
2019-05-22T21:59:30.514Z,6.20
2019-05-22T22:02:09.385Z,3.90
2019-05-22T22:04:39.654Z,4.30
2019-05-22T22:07:09.457Z,3.80
2019-05-22T22:09:40.030Z,3.70
2019-05-22T22:12:10.574Z,3.90
2019-05-22T22:14:39.944Z,3.70
2019-05-22T22:17:10.088Z,3.77
2019-05-22T22:19:40.432Z,4.80
2019-05-22T22:22:14.098Z,7.63
2019-05-22T22:24:43.645Z,4.40
2019-05-22T22:27:13.985Z,5.67
2019-05-22T22:29:43.237Z,5.27
2019-05-22T22:32:13.170Z,4.27
2019-05-22T22:34:47.336Z,5.30
2019-05-22T22:37:17.418Z,4.47
2019-05-22T22:39:51.945Z,5.30
2019-05-22T22:42:26.645Z,5.03
2019-05-22T22:44:57.374Z,5.33
2019-05-22T22:47:46.959Z,4.73
2019-05-22T22:50:19.356Z,4.63
2019-05-22T22:52:49.333Z,4.63
2019-05-22T22:55:19.176Z,3.90
2019-05-22T22:57:49.697Z,4.73
2019-05-22T23:00:25.308Z,4.73
2019-05-22T23:02:55.734Z,7.03
2019-05-22T23:05:25.184Z,5.00
2019-05-22T23:07:55.641Z,5.40
2019-05-22T23:10:25.730Z,4.67
2019-05-22T23:12:55.722Z,5.07
2019-05-22T23:15:26.447Z,4.47
2019-05-22T23:17:56.618Z,4.43
2019-05-22T23:20:24.450Z,5.20
2019-05-22T23:22:52.307Z,3.67
2019-05-22T23:25:44.810Z,5.50
2019-05-22T23:28:14.070Z,4.37
2019-05-22T23:30:43.738Z,3.77
2019-05-22T23:33:13.018Z,4.07
2019-05-22T23:35:43.091Z,4.00
2019-05-22T23:38:14.647Z,4.80
2019-05-22T23:40:46.031Z,3.33
2019-05-22T23:43:16.398Z,4.10
2019-05-22T23:45:46.465Z,6.17
2019-05-22T23:48:17.131Z,4.27
2019-05-22T23:50:49.381Z,4.93
2019-05-22T23:53:20.821Z,5.10
2019-05-22T23:55:50.153Z,6.37
2019-05-22T23:58:22.819Z,5.80
